Terminal Aerodrome Forecast
Issued by NWS

Home | Current Version | Previous Version | Text Only | Print | Product List | Glossary On
Versions: 1 2 3 4 5 6 7 8 9 10 11 12 13
000
FTUS46 KMTR 261120
TAFOAK
TAF
KOAK 261120Z 2612/2718 22011KT P6SM OVC025
     FM261600 24009KT P6SM BKN030
     FM261800 23010KT P6SM SCT030
     FM262000 27011KT P6SM FEW030
     FM270300 28012KT P6SM FEW015 BKN020
     FM270800 28006KT P6SM OVC015
     FM271730 27010KT P6SM SCT020=

USA.gov is the U.S. government's official web portal to all federal, state and local government web resources and services.